Hollister, Wisconsin
Current Conditions -  °F | °C
As of 11:35 AM on Monday 24 Nov 2014 (Local Time) from KAIG Reporting Station
Light Rain Light Rain  
Wind Chill: 23°   Ceiling: 1200
Heat Index: 34°   Visibility: 4mi
Dew Point: 33°   Wind: 17mph
Humidity: 97%   Direction: 340°NNW
Pressure: 29.09"   Gusts: 23mph
Location:  45.261°N, 88.731°W
Report Text: KAIG 241735Z AUTO 34015G20KT 4SM -RA OVC012 01/01 A2909 RMK AO2 P0001 T00110007
Loading
Personal Weather Stations






























Interactive Weather Map New forecast layout! Learn more

10-Day Weather Forecast

Advertisements
Track Severe Weather on mobile